METAR Data
IDs: Format: Raw Decoded Include TAF

Data at: 0821 UTC 20 Sep 2018

K4I3 200816Z AUTO 04003KT 7SM CLR 17/17 A3010 RMK AO2
K4I3 200756Z AUTO 00000KT 7SM CLR 17/17 A3009 RMK AO2
K4I3 200737Z AUTO 00000KT 10SM CLR 17/17 A3009 RMK AO2
K4I3 200716Z AUTO 00000KT 10SM CLR 17/17 A3009 RMK AO2
K4I3 200657Z AUTO 09003KT 10SM CLR 17/17 A3009 RMK AO2
K4I3 200637Z AUTO 00000KT 10SM CLR 17/17 A3010 RMK AO2
K4I3 200616Z AUTO 05003KT 7SM CLR 17/17 A3010 RMK AO2
K4I3 200557Z AUTO 04003KT 10SM CLR 17/17 A3009 RMK AO2
K4I3 200537Z AUTO 04003KT 10SM CLR 18/17 A3010 RMK AO2
K4I3 200516Z AUTO 00000KT 10SM CLR 18/18 A3010 RMK AO2
K4I3 200457Z AUTO 00000KT 10SM CLR 18/18 A3011 RMK AO2
K4I3 200437Z AUTO 05004KT 10SM CLR 18/18 A3010 RMK AO2
K4I3 200416Z AUTO 04004KT 10SM CLR 18/18 A3010 RMK AO2
K4I3 200357Z AUTO 06004KT 10SM CLR 19/18 A3010 RMK AO2
K4I3 200337Z AUTO 04005KT 10SM CLR 19/18 A3011 RMK AO2
K4I3 200316Z AUTO 04005KT 10SM CLR 19/19 A3011 RMK AO2
K4I3 200257Z AUTO 04005KT 10SM CLR 20/19 A3010 RMK AO2
K4I3 200237Z AUTO 04006KT 10SM CLR 20/19 A3010 RMK AO2
K4I3 200216Z AUTO 03004KT 10SM CLR 20/19 A3011 RMK AO2
K4I3 200156Z AUTO 03005KT 10SM CLR 21/19 A3010 RMK AO2
K4I3 200137Z AUTO 03004KT 10SM CLR 21/20 A3010 RMK AO2
K4I3 200116Z AUTO 04006KT 10SM CLR 21/20 A3010 RMK AO2
K4I3 200057Z AUTO 04004KT 10SM CLR 22/20 A3009 RMK AO2
K4I3 200036Z AUTO 03004KT 10SM CLR 22/20 A3009 RMK AO2
K4I3 200016Z AUTO 05004KT 10SM CLR 23/20 A3007 RMK AO2
K4I3 192357Z AUTO 06004KT 10SM CLR 23/20 A3007 RMK AO2
K4I3 192336Z AUTO 07004KT 10SM CLR 24/20 A3006 RMK AO2
K4I3 192316Z AUTO 04004KT 10SM CLR 25/20 A3006 RMK AO2
K4I3 192257Z AUTO 04006KT 10SM CLR 26/20 A3005 RMK AO2
K4I3 192236Z AUTO 03003KT 10SM SCT042 27/20 A3005 RMK AO2
K4I3 192216Z AUTO 04004KT 10SM CLR 28/20 A3005 RMK AO2
K4I3 192157Z AUTO 00000KT 10SM CLR 28/20 A3004 RMK AO2
K4I3 192136Z AUTO 00000KT 10SM CLR 28/20 A3004 RMK AO2
K4I3 192116Z AUTO 05003KT 10SM CLR 28/20 A3004 RMK AO2
K4I3 192057Z AUTO 33004KT 10SM CLR 28/20 A3004 RMK AO2
K4I3 192036Z AUTO 04005KT 10SM SCT037 28/20 A3004 RMK AO2
K4I3 192016Z AUTO 00000KT 10SM SCT038 27/21 A3004 RMK AO2
K4I3 191957Z AUTO 35005KT 10SM SCT038 29/20 A3005 RMK AO2
K4I3 191936Z AUTO 35003KT 10SM SCT033 29/21 A3005 RMK AO2
K4I3 191916Z AUTO 00000KT 10SM SCT031 28/21 A3004 RMK AO2
K4I3 191857Z AUTO 04004KT 10SM SCT031 28/21 A3005 RMK AO2
K4I3 191836Z AUTO 05007KT 010V070 10SM SCT027 28/22 A3005 RMK AO2
K4I3 191816Z AUTO 05005KT 10SM CLR 28/22 A3006 RMK AO2
K4I3 191757Z AUTO 00000KT 10SM CLR 27/21 A3007 RMK AO2
K4I3 191736Z AUTO 04004KT 10SM CLR 27/22 A3007 RMK AO2
K4I3 191716Z AUTO 01005KT 10SM SCT018 26/22 A3007 RMK AO2
K4I3 191657Z AUTO 00000KT 10SM BKN016 26/22 A3007 RMK AO2
K4I3 191636Z AUTO 08004KT 10SM BKN016 26/22 A3007 RMK AO2
K4I3 191616Z AUTO 07007KT 10SM OVC014 25/22 A3007 RMK AO2
K4I3 191557Z AUTO 01004KT 10SM BKN014 25/22 A3006 RMK AO2
K4I3 191536Z AUTO 07009KT 10SM SCT012 24/22 A3007 RMK AO2
K4I3 191517Z AUTO 05006KT 10SM BKN010 23/22 A3006 RMK AO2
K4I3 191457Z AUTO 05007KT 10SM BKN010 24/22 A3006 RMK AO2
K4I3 191436Z AUTO 04005KT 10SM SCT005 22/22 A3005 RMK AO2
K4I3 191417Z AUTO 05007KT 10SM OVC005 22/22 A3005 RMK AO2
K4I3 191357Z AUTO 07005KT 7SM OVC001 21/21 A3005 RMK AO2
K4I3 191336Z AUTO 05003KT 3SM BR OVC001 21/21 A3004 RMK AO2
K4I3 191317Z AUTO 11003KT 3SM BR 20/20 A3004 RMK AO2 SKY OBSCURED
K4I3 191256Z AUTO 02003KT 1 3/4SM BR BKN001 BKN060 BKN080 20/20 A3005 RMK AO2
K4I3 191236Z AUTO 00000KT 2SM BR 20/20 A3004 RMK AO2 SKY OBSCURED
K4I3 191217Z AUTO 00000KT 1 1/4SM BR SCT001 BKN070 20/20 A3004 RMK AO2
K4I3 191156Z AUTO 04003KT 1 3/4SM BR SCT001 BKN060 OVC070 20/20 A3004 RMK AO2
K4I3 191137Z AUTO 35004KT 3SM BR OVC060 20/20 A3004 RMK AO2
K4I3 191116Z AUTO 03004KT 3SM -RA 20/20 A3003 RMK AO2 SKY OBSCURED
K4I3 191056Z AUTO 06003KT 3SM BR 19/19 A3001 RMK AO2 SKY OBSCURED P0001
K4I3 191037Z AUTO 00000KT 3SM BR 20/20 A3000 RMK AO2 SKY OBSCURED P0001
K4I3 191016Z AUTO 04006KT 3SM -RA 20/20 A3000 RMK AO2 SKY OBSCURED P0001
K4I3 190956Z AUTO 36006KT 5SM RA SCT004 BKN010 BKN017 20/20 A3001 RMK AO2 P0021
K4I3 190937Z AUTO 01011KT 2 1/2SM +RA SCT004 SCT011 OVC055 20/20 A3000 RMK AO2 VIS 1 1/4V5 LTG DSNT NE P0017
K4I3 190916Z AUTO 36009KT 10SM -RA BKN055 BKN065 OVC095 20/20 A2999 RMK AO2
K4I3 190856Z AUTO 35010KT 10SM SCT060 OVC095 19/19 A2998 RMK AO2 LTG DSNT NE
K4I3 190837Z AUTO 00000KT 7SM SCT095 18/18 A2995 RMK AO2
K4I3 190816Z AUTO 00000KT 10SM CLR 19/19 A2995 RMK AO2
K4I3 190757Z AUTO 00000KT 10SM CLR 19/19 A2995 RMK AO2
K4I3 190737Z AUTO 00000KT 10SM CLR 19/19 A2995 RMK AO2
K4I3 190716Z AUTO 29003KT 10SM CLR 19/19 A2997 RMK AO2
K4I3 190657Z AUTO 29004KT 10SM CLR 18/18 A2996 RMK AO2
K4I3 190637Z AUTO 00000KT 10SM CLR 19/19 A2996 RMK AO2
K4I3 190616Z AUTO 00000KT 10SM CLR 19/19 A2996 RMK AO2
K4I3 190557Z AUTO 35003KT 10SM CLR 19/19 A2996 RMK AO2
K4I3 190537Z AUTO 34004KT 10SM CLR 19/19 A2997 RMK AO2
K4I3 190516Z AUTO 01004KT 7SM BKN055 BKN120 20/19 A2997 RMK AO2
K4I3 190457Z AUTO 00000KT 10SM SCT055 20/20 A2996 RMK AO2
K4I3 190436Z AUTO 00000KT 10SM CLR 19/19 A2996 RMK AO2
K4I3 190416Z AUTO 00000KT 10SM CLR 20/19 A2996 RMK AO2
K4I3 190357Z AUTO 00000KT 10SM CLR 20/19 A2997 RMK AO2
K4I3 190336Z AUTO 00000KT 10SM CLR 20/20 A2997 RMK AO2
K4I3 190316Z AUTO 00000KT 10SM CLR 21/20 A2997 RMK AO2
K4I3 190257Z AUTO 00000KT 10SM CLR 21/20 A2997 RMK AO2
K4I3 190236Z AUTO 00000KT 10SM CLR 20/19 A2996 RMK AO2
K4I3 190217Z AUTO 00000KT 10SM CLR 21/20 A2996 RMK AO2
K4I3 190156Z AUTO 01004KT 10SM CLR 23/20 A2996 RMK AO2
K4I3 190136Z AUTO 01004KT 10SM CLR 24/20 A2996 RMK AO2
K4I3 190117Z AUTO 36004KT 10SM CLR 23/19 A2995 RMK AO2
K4I3 190056Z AUTO 34003KT 10SM CLR 22/19 A2995 RMK AO2
K4I3 190036Z AUTO 00000KT 10SM CLR 23/20 A2994 RMK AO2
K4I3 190017Z AUTO 31003KT 10SM CLR 23/20 A2994 RMK AO2
K4I3 182356Z AUTO 30003KT 10SM CLR 24/20 A2994 RMK AO2
K4I3 182336Z AUTO 00000KT 10SM CLR 25/20 A2994 RMK AO2
K4I3 182317Z AUTO 29003KT 10SM CLR 26/20 A2994 RMK AO2
K4I3 182256Z AUTO 29003KT 10SM CLR 28/20 A2994 RMK AO2
K4I3 182237Z AUTO 30005KT 10SM CLR 29/19 A2994 RMK AO2
K4I3 182217Z AUTO 28003KT 10SM CLR 30/18 A2994 RMK AO2
K4I3 182156Z AUTO 28005KT 10SM CLR 30/18 A2994 RMK AO2
K4I3 182137Z AUTO 27003KT 10SM CLR 30/17 A2994 RMK AO2
K4I3 182117Z AUTO 28006KT 10SM CLR 30/17 A2994 RMK AO2
K4I3 182056Z AUTO 31006KT 10SM CLR 30/17 A2994 RMK AO2
K4I3 182036Z AUTO 30007KT 10SM CLR 30/17 A2994 RMK AO2